Sugar Valley, Texas
Current Conditions -  °F | °C
As of 1:53 AM on Sunday 21 Dec 2014 (Local Time) from KLBX Reporting Station
Overcast Overcast  
Wind Chill: 51°   Ceiling: 2200
Heat Index: 51°   Visibility: 10mi
Dew Point: 49°   Wind: 7mph
Humidity: 92%   Direction: 20°NNE
Pressure: 30.15"   Gusts: NA
Location:  29.0235°N, 95.7113°W
Report Text: KLBX 210753Z AUTO 02006KT 10SM OVC022 11/09 A3015 RMK AO2 SLP210 T01060094
Loading
Personal Weather Stations






























Interactive Weather Map New forecast layout! Learn more

10-Day Weather Forecast

Advertisements
Track Severe Weather on mobile